Guilford, Kansas
Current Conditions -  °F | °C
As of 10:52 PM on Thursday 27 Nov 2014 (Local Time) from KCNU Reporting Station
Clear Clear  
Wind Chill: 23°   Ceiling: Unl
Heat Index: 31°   Visibility: 10mi
Dew Point: 24°   Wind: 8mph
Humidity: 76%   Direction: 140°SE
Pressure: 30.26"   Gusts: NA
Location:  37.5152°N, 95.6341°W
Report Text: KCNU 280452Z AUTO 14007KT 10SM CLR M01/M04 A3026 RMK AO2 SLP254 T10061044
Loading
Personal Weather Stations






























Interactive Weather Map New forecast layout! Learn more

10-Day Weather Forecast

Advertisements
Track Severe Weather on mobile